createdAt,value
2019-02-09T00:02:13.960Z,7.50
2019-02-09T00:04:45.101Z,7.47
2019-02-09T00:07:16.366Z,7.43
2019-02-09T00:09:47.477Z,7.45
2019-02-09T00:12:18.757Z,7.47
2019-02-09T00:14:49.523Z,7.40
2019-02-09T00:17:20.599Z,7.43
2019-02-09T00:19:51.346Z,7.41
2019-02-09T00:22:22.326Z,7.29
2019-02-09T00:24:53.185Z,7.37
2019-02-09T00:27:24.121Z,7.45
2019-02-09T00:29:55.177Z,7.42
2019-02-09T00:32:26.140Z,7.45
2019-02-09T00:34:56.897Z,7.53
2019-02-09T00:37:27.635Z,7.60
2019-02-09T00:39:58.902Z,7.70
2019-02-09T00:42:29.903Z,7.76
2019-02-09T00:45:00.921Z,7.87
2019-02-09T00:47:31.890Z,7.84
2019-02-09T00:50:02.953Z,7.90
2019-02-09T00:52:34.019Z,7.91
2019-02-09T00:55:06.150Z,8.04
2019-02-09T00:57:36.973Z,8.05
2019-02-09T01:00:13.879Z,8.11
2019-02-09T01:02:45.149Z,8.08
2019-02-09T01:05:17.207Z,8.21
2019-02-09T01:07:48.271Z,8.22
2019-02-09T01:10:19.383Z,8.28
2019-02-09T01:12:50.397Z,8.18
2019-02-09T01:15:21.295Z,8.39
2019-02-09T01:17:52.189Z,8.51
2019-02-09T01:20:23.713Z,8.51
2019-02-09T01:22:54.944Z,8.43
2019-02-09T01:25:25.855Z,8.58
2019-02-09T01:27:56.750Z,8.60
2019-02-09T01:30:28.051Z,8.63
2019-02-09T01:32:59.169Z,8.65
2019-02-09T01:35:30.224Z,8.62
2019-02-09T01:38:01.062Z,8.56
2019-02-09T01:40:32.220Z,8.37
2019-02-09T01:43:02.967Z,8.13
2019-02-09T01:45:33.964Z,8.00
2019-02-09T01:48:05.273Z,7.92
2019-02-09T01:50:36.644Z,7.88
2019-02-09T01:53:07.645Z,7.97
2019-02-09T01:55:39.130Z,8.00
2019-02-09T01:58:10.043Z,7.99
2019-02-09T02:00:41.865Z,7.95
2019-02-09T02:03:12.933Z,7.83
2019-02-09T02:05:43.874Z,7.68
2019-02-09T02:08:17.259Z,7.56
2019-02-09T02:10:48.263Z,7.38
2019-02-09T02:13:19.254Z,7.18
2019-02-09T02:15:50.245Z,7.09
2019-02-09T02:18:21.073Z,7.00
2019-02-09T02:20:51.843Z,6.92
2019-02-09T02:23:22.588Z,6.85
2019-02-09T02:25:54.184Z,6.77
2019-02-09T02:28:25.005Z,6.64
2019-02-09T02:30:55.766Z,6.71
2019-02-09T02:33:26.624Z,6.61
2019-02-09T02:35:57.407Z,6.62
2019-02-09T02:38:28.162Z,6.55
2019-02-09T02:40:59.328Z,6.51
2019-02-09T02:43:30.389Z,6.46
2019-02-09T02:46:01.332Z,6.40
2019-02-09T02:48:33.195Z,6.39
2019-02-09T02:51:03.958Z,6.41
2019-02-09T02:53:35.018Z,6.31
2019-02-09T02:56:06.500Z,6.31
2019-02-09T02:58:37.260Z,6.29
2019-02-09T03:01:08.282Z,6.28
2019-02-09T03:03:39.828Z,6.16
2019-02-09T03:06:11.184Z,6.26
2019-02-09T03:08:42.718Z,6.17
2019-02-09T03:11:13.795Z,6.27
2019-02-09T03:13:45.158Z,6.36
2019-02-09T03:16:15.925Z,6.38
2019-02-09T03:18:46.917Z,6.31
2019-02-09T03:21:17.679Z,6.37
2019-02-09T03:23:55.077Z,6.34
2019-02-09T03:26:26.653Z,6.36
2019-02-09T03:28:57.975Z,6.34
2019-02-09T03:31:29.705Z,6.40
2019-02-09T03:34:00.991Z,6.41
2019-02-09T03:36:31.755Z,6.38
2019-02-09T03:39:06.174Z,6.37
2019-02-09T03:41:40.620Z,6.35
2019-02-09T03:44:11.590Z,6.39
2019-02-09T03:46:43.082Z,6.44
2019-02-09T03:49:14.054Z,6.46
2019-02-09T03:51:45.263Z,6.47
2019-02-09T03:54:16.383Z,6.50
2019-02-09T03:56:47.543Z,6.49
2019-02-09T03:59:19.144Z,6.49
2019-02-09T04:01:50.725Z,6.51
2019-02-09T04:04:21.715Z,6.47
2019-02-09T04:06:52.655Z,6.53
2019-02-09T04:09:23.412Z,6.49
2019-02-09T04:11:54.353Z,6.51
2019-02-09T04:14:25.417Z,6.50
2019-02-09T04:16:56.573Z,6.46
2019-02-09T04:19:27.573Z,6.46
2019-02-09T04:21:58.559Z,6.54
2019-02-09T04:24:29.549Z,6.55
2019-02-09T04:27:00.322Z,6.54
2019-02-09T04:29:31.140Z,6.50
2019-02-09T04:32:01.970Z,6.56
2019-02-09T04:34:33.047Z,6.56
2019-02-09T04:37:04.230Z,6.56
2019-02-09T04:39:34.978Z,6.63
2019-02-09T04:42:06.328Z,6.60
2019-02-09T04:44:37.077Z,6.64
2019-02-09T04:47:08.398Z,6.68
2019-02-09T04:49:39.360Z,6.68
2019-02-09T04:52:10.362Z,6.69
2019-02-09T04:54:41.109Z,6.73
2019-02-09T04:57:12.256Z,6.67
2019-02-09T04:59:43.366Z,6.76
2019-02-09T05:02:14.113Z,6.70
2019-02-09T05:04:44.968Z,6.82
2019-02-09T05:07:16.085Z,6.84
2019-02-09T05:09:46.833Z,6.89
2019-02-09T05:12:17.665Z,6.97
2019-02-09T05:14:48.649Z,6.97
2019-02-09T05:17:19.393Z,7.01
2019-02-09T05:19:50.373Z,7.02
2019-02-09T05:22:21.459Z,7.01
2019-02-09T05:24:53.566Z,6.99
2019-02-09T05:27:24.427Z,6.95
2019-02-09T05:29:55.522Z,7.02
2019-02-09T05:32:26.357Z,7.03
2019-02-09T05:34:57.339Z,7.07
2019-02-09T05:37:28.335Z,7.14
2019-02-09T05:39:59.243Z,7.08
2019-02-09T05:42:30.246Z,7.10
2019-02-09T05:45:01.084Z,7.12
2019-02-09T05:47:31.847Z,7.12
2019-02-09T05:50:03.041Z,7.14
2019-02-09T05:52:33.793Z,7.14
2019-02-09T05:55:05.215Z,7.25
2019-02-09T05:57:36.222Z,7.25
2019-02-09T06:00:09.739Z,7.23
2019-02-09T06:02:40.486Z,7.24
2019-02-09T06:05:11.562Z,7.34
2019-02-09T06:07:42.422Z,7.47
2019-02-09T06:10:14.745Z,7.42
2019-02-09T06:12:45.715Z,7.42
2019-02-09T06:15:17.233Z,7.48
2019-02-09T06:17:48.053Z,7.39
2019-02-09T06:20:20.979Z,7.39
2019-02-09T06:22:51.793Z,7.39
2019-02-09T06:25:22.886Z,7.42
2019-02-09T06:27:53.924Z,7.46
2019-02-09T06:30:26.615Z,7.50
2019-02-09T06:32:57.495Z,7.51
2019-02-09T06:35:28.669Z,7.58
2019-02-09T06:37:59.740Z,7.52
2019-02-09T06:40:30.892Z,7.65
2019-02-09T06:43:01.642Z,7.60
2019-02-09T06:45:32.414Z,7.65
2019-02-09T06:48:20.425Z,7.67
2019-02-09T06:50:52.504Z,7.73
2019-02-09T06:53:23.559Z,7.65
2019-02-09T06:55:54.896Z,7.57
2019-02-09T06:58:26.199Z,7.62
2019-02-09T07:00:56.954Z,7.57
2019-02-09T07:03:28.082Z,7.57
2019-02-09T07:05:58.998Z,7.54
2019-02-09T07:08:30.077Z,7.67
2019-02-09T07:11:01.498Z,7.73
2019-02-09T07:13:32.274Z,7.81
2019-02-09T07:16:03.027Z,7.88
2019-02-09T07:18:40.350Z,7.96
2019-02-09T07:21:11.390Z,8.02
2019-02-09T07:23:42.634Z,8.03
2019-02-09T07:26:13.778Z,8.06
2019-02-09T07:28:44.607Z,8.04
2019-02-09T07:31:15.805Z,8.03
2019-02-09T07:33:46.730Z,8.05
2019-02-09T07:36:17.606Z,8.02
2019-02-09T07:38:48.795Z,7.96
2019-02-09T07:41:20.031Z,7.92
2019-02-09T07:43:51.260Z,7.90
2019-02-09T07:46:22.081Z,7.90
2019-02-09T07:48:53.383Z,7.86
2019-02-09T07:51:24.145Z,7.92
2019-02-09T07:53:55.196Z,8.00
2019-02-09T07:56:26.485Z,7.99
2019-02-09T07:58:57.296Z,8.05
2019-02-09T08:01:28.166Z,8.12
2019-02-09T08:03:58.982Z,8.13
2019-02-09T08:06:30.068Z,8.15
2019-02-09T08:09:00.839Z,8.14
2019-02-09T08:11:33.433Z,8.15
2019-02-09T08:14:04.285Z,8.18
2019-02-09T08:16:35.354Z,8.21
2019-02-09T08:19:06.217Z,8.26
2019-02-09T08:21:37.053Z,8.30
2019-02-09T08:24:07.894Z,8.32
2019-02-09T08:26:38.643Z,8.39
2019-02-09T08:29:09.789Z,8.43
2019-02-09T08:31:40.697Z,8.45
2019-02-09T08:34:11.469Z,8.42
2019-02-09T08:36:42.342Z,8.31
2019-02-09T08:39:13.305Z,8.38
2019-02-09T08:41:44.059Z,8.37
2019-02-09T08:44:14.921Z,8.33
2019-02-09T08:46:45.758Z,8.38
2019-02-09T08:49:16.605Z,8.45
2019-02-09T08:51:47.653Z,8.56
2019-02-09T08:54:19.151Z,8.53
2019-02-09T08:56:50.141Z,8.28
2019-02-09T08:59:20.954Z,8.25
2019-02-09T09:01:52.049Z,8.28
2019-02-09T09:04:23.221Z,8.40
2019-02-09T09:06:54.113Z,8.42
2019-02-09T09:09:25.176Z,8.38
2019-02-09T09:11:56.089Z,8.23
2019-02-09T09:14:27.142Z,8.30
2019-02-09T09:16:58.238Z,8.26
2019-02-09T09:19:29.069Z,8.18
2019-02-09T09:21:59.963Z,8.26
2019-02-09T09:24:31.170Z,8.45
2019-02-09T09:27:02.113Z,8.54
2019-02-09T09:29:32.880Z,8.62
2019-02-09T09:32:03.646Z,8.53
2019-02-09T09:34:34.778Z,8.30
2019-02-09T09:37:05.785Z,8.04
2019-02-09T09:39:37.301Z,7.89
2019-02-09T09:42:08.528Z,7.87
2019-02-09T09:44:39.524Z,7.87
2019-02-09T09:47:10.266Z,7.87
2019-02-09T09:49:41.283Z,7.97
2019-02-09T09:52:12.506Z,8.01
2019-02-09T09:54:43.751Z,8.15
2019-02-09T09:57:14.722Z,8.26
2019-02-09T09:59:45.735Z,8.32
2019-02-09T10:02:16.568Z,8.43
2019-02-09T10:04:47.560Z,8.50
2019-02-09T10:07:18.319Z,8.51
2019-02-09T10:09:49.578Z,8.52
2019-02-09T10:12:20.336Z,8.51
2019-02-09T10:14:51.595Z,8.61
2019-02-09T10:17:22.584Z,8.64
2019-02-09T10:19:53.342Z,8.79
2019-02-09T10:22:24.346Z,8.92
2019-02-09T10:24:55.111Z,8.80
2019-02-09T10:27:26.195Z,8.95
2019-02-09T10:29:57.228Z,8.98
2019-02-09T10:32:28.338Z,8.95
2019-02-09T10:34:59.483Z,9.01
2019-02-09T10:37:30.337Z,9.09
2019-02-09T10:40:01.595Z,9.11
2019-02-09T10:42:32.349Z,9.13
2019-02-09T10:45:03.505Z,9.26
2019-02-09T10:47:34.638Z,9.37
2019-02-09T10:50:07.108Z,9.39
2019-02-09T10:52:38.082Z,9.42
2019-02-09T10:55:09.542Z,9.50
2019-02-09T10:57:40.442Z,9.54
2019-02-09T11:00:17.601Z,9.70
2019-02-09T11:02:52.145Z,9.82
2019-02-09T11:05:21.204Z,9.90
2019-02-09T11:07:52.162Z,9.99
2019-02-09T11:10:23.282Z,9.89
2019-02-09T11:12:54.409Z,9.79
2019-02-09T11:15:25.743Z,9.63
2019-02-09T11:17:56.561Z,9.60
2019-02-09T11:20:27.317Z,9.34
2019-02-09T11:22:58.138Z,9.27
2019-02-09T11:25:29.436Z,9.16
2019-02-09T11:28:00.510Z,9.15
2019-02-09T11:30:31.436Z,9.26
2019-02-09T11:33:02.744Z,9.48
2019-02-09T11:35:33.931Z,9.42
2019-02-09T11:38:05.468Z,9.26
2019-02-09T11:40:36.815Z,9.38
2019-02-09T11:43:07.774Z,9.43
2019-02-09T11:45:38.897Z,9.47
2019-02-09T11:48:09.876Z,9.40
2019-02-09T11:50:40.887Z,9.41
2019-02-09T11:53:11.940Z,9.44
2019-02-09T11:55:42.706Z,9.48
2019-02-09T11:58:13.744Z,9.45
2019-02-09T12:00:47.494Z,9.57
2019-02-09T12:03:18.369Z,9.54
2019-02-09T12:05:49.154Z,9.59
2019-02-09T12:08:20.002Z,9.73
2019-02-09T12:10:50.938Z,9.71
2019-02-09T12:13:21.731Z,9.81
2019-02-09T12:15:52.679Z,9.75
2019-02-09T12:18:23.441Z,9.60
2019-02-09T12:20:54.452Z,9.70
2019-02-09T12:23:25.432Z,10.16
2019-02-09T12:25:56.284Z,10.38
2019-02-09T12:28:27.512Z,10.45
2019-02-09T12:30:58.666Z,10.60
2019-02-09T12:33:29.725Z,10.45
2019-02-09T12:36:00.560Z,10.21
2019-02-09T12:38:31.631Z,9.89
2019-02-09T12:41:02.519Z,9.41
2019-02-09T12:43:33.266Z,8.72
2019-02-09T12:46:04.458Z,8.45
2019-02-09T12:48:35.286Z,8.13
2019-02-09T12:51:06.054Z,7.87
2019-02-09T12:53:36.811Z,7.75
2019-02-09T12:56:08.119Z,7.71
2019-02-09T12:58:39.127Z,7.74
2019-02-09T13:01:09.971Z,7.72
2019-02-09T13:03:40.950Z,7.62
2019-02-09T13:06:11.719Z,7.57
2019-02-09T13:08:42.556Z,7.55
2019-02-09T13:11:13.320Z,7.45
2019-02-09T13:13:44.071Z,7.41
2019-02-09T13:16:15.174Z,7.34
2019-02-09T13:18:46.229Z,7.21
2019-02-09T13:21:17.066Z,7.31
2019-02-09T13:23:48.042Z,7.23
2019-02-09T13:26:19.086Z,7.20
2019-02-09T13:28:50.347Z,7.20
2019-02-09T13:31:21.180Z,7.16
2019-02-09T13:33:51.955Z,7.23
2019-02-09T13:36:23.016Z,7.32
2019-02-09T13:38:53.881Z,7.40
2019-02-09T13:41:24.910Z,7.33
2019-02-09T13:43:56.036Z,7.34
2019-02-09T13:46:27.027Z,7.33
2019-02-09T13:48:58.791Z,7.36
2019-02-09T13:51:29.794Z,7.42
2019-02-09T13:54:01.549Z,7.36
2019-02-09T13:56:32.620Z,7.37
2019-02-09T13:59:03.491Z,7.33
2019-02-09T14:01:34.678Z,7.31
2019-02-09T14:04:06.169Z,7.18
2019-02-09T14:06:37.166Z,7.21
2019-02-09T14:09:08.709Z,7.30
2019-02-09T14:11:41.333Z,7.25
2019-02-09T14:14:12.317Z,7.23
2019-02-09T14:16:43.156Z,7.32
2019-02-09T14:19:13.995Z,7.27
2019-02-09T14:21:45.797Z,7.40
2019-02-09T14:24:17.089Z,7.39
2019-02-09T14:26:48.070Z,7.47
2019-02-09T14:29:19.058Z,7.46
2019-02-09T14:31:50.141Z,7.53
2019-02-09T14:34:21.144Z,7.58
2019-02-09T14:36:53.372Z,7.61
2019-02-09T14:39:24.494Z,7.65
2019-02-09T14:41:55.373Z,7.71
2019-02-09T14:44:26.478Z,7.75
2019-02-09T14:46:57.626Z,7.75
2019-02-09T14:49:28.418Z,7.72
2019-02-09T14:52:00.009Z,7.71
2019-02-09T14:54:31.052Z,7.69
2019-02-09T14:57:02.099Z,7.75
2019-02-09T14:59:32.848Z,7.76
2019-02-09T15:02:04.079Z,7.73
2019-02-09T15:04:35.056Z,7.76
2019-02-09T15:07:05.879Z,7.79
2019-02-09T15:09:37.857Z,7.82
2019-02-09T15:12:09.130Z,7.75
2019-02-09T15:14:40.033Z,7.79
2019-02-09T15:17:11.128Z,7.89
2019-02-09T15:19:42.207Z,7.85
2019-02-09T15:22:13.104Z,7.86
2019-02-09T15:24:43.942Z,7.93
2019-02-09T15:27:14.754Z,7.87
2019-02-09T15:29:45.949Z,7.92
2019-02-09T15:32:16.815Z,7.88
2019-02-09T15:34:47.765Z,7.88
2019-02-09T15:37:19.189Z,8.02
2019-02-09T15:39:50.039Z,7.94
2019-02-09T15:42:21.049Z,8.10
2019-02-09T15:44:51.989Z,8.05
2019-02-09T15:47:22.969Z,8.02
2019-02-09T15:49:53.744Z,8.12
2019-02-09T15:52:24.510Z,8.02
2019-02-09T15:54:55.297Z,8.05
2019-02-09T15:57:26.125Z,8.06
2019-02-09T15:59:57.335Z,8.09
2019-02-09T16:02:28.407Z,8.02
2019-02-09T16:04:59.162Z,8.09
2019-02-09T16:07:30.387Z,8.02
2019-02-09T16:10:01.155Z,7.95
2019-02-09T16:12:32.879Z,7.86
2019-02-09T16:15:04.314Z,7.83
2019-02-09T16:17:35.489Z,7.82
2019-02-09T16:20:07.234Z,7.79
2019-02-09T16:22:38.198Z,7.88
2019-02-09T16:25:09.860Z,7.81
2019-02-09T16:27:41.261Z,7.88
2019-02-09T16:30:18.703Z,8.05
2019-02-09T16:32:49.797Z,8.02
2019-02-09T16:35:21.499Z,8.13
2019-02-09T16:37:52.570Z,8.10
2019-02-09T16:40:25.370Z,8.09
2019-02-09T16:42:56.193Z,8.16
2019-02-09T16:45:30.096Z,8.12
2019-02-09T16:48:01.460Z,8.05
2019-02-09T16:50:32.475Z,8.07
2019-02-09T16:53:03.391Z,8.07
2019-02-09T16:55:34.530Z,8.09
2019-02-09T16:58:05.874Z,8.13
2019-02-09T17:00:39.055Z,8.16
2019-02-09T17:03:10.584Z,8.11
2019-02-09T17:05:42.893Z,8.18
2019-02-09T17:08:15.187Z,8.21
2019-02-09T17:10:46.945Z,8.26
2019-02-09T17:13:18.090Z,8.18
2019-02-09T17:15:50.068Z,8.09
2019-02-09T17:18:20.954Z,8.04
2019-02-09T17:20:52.967Z,8.10
2019-02-09T17:23:23.953Z,8.03
2019-02-09T17:25:55.116Z,7.96
2019-02-09T17:28:26.255Z,7.90
2019-02-09T17:30:57.781Z,7.82
2019-02-09T17:33:29.871Z,7.72
2019-02-09T17:36:00.741Z,7.62
2019-02-09T17:38:31.499Z,7.52
2019-02-09T17:41:02.669Z,7.37
2019-02-09T17:43:33.467Z,7.30
2019-02-09T17:46:14.417Z,7.20
2019-02-09T17:48:45.339Z,7.19
2019-02-09T17:51:16.698Z,7.19
2019-02-09T17:53:47.467Z,7.17
2019-02-09T17:56:18.245Z,7.30
2019-02-09T17:58:49.127Z,7.29
2019-02-09T18:01:20.145Z,7.28
2019-02-09T18:03:50.969Z,7.33
2019-02-09T18:06:21.851Z,7.29
2019-02-09T18:08:52.900Z,7.25
2019-02-09T18:11:23.904Z,7.30
2019-02-09T18:13:54.725Z,7.29
2019-02-09T18:16:25.803Z,7.27
2019-02-09T18:18:56.795Z,7.27
2019-02-09T18:21:27.920Z,7.29
2019-02-09T18:23:59.246Z,7.36
2019-02-09T18:26:30.023Z,7.35
2019-02-09T18:29:01.062Z,7.28
2019-02-09T18:31:32.131Z,7.33
2019-02-09T18:34:03.122Z,7.38
2019-02-09T18:36:34.117Z,7.33
2019-02-09T18:39:10.040Z,7.33
2019-02-09T18:41:40.956Z,7.45
2019-02-09T18:44:11.960Z,7.37
2019-02-09T18:46:43.125Z,7.29
2019-02-09T18:49:13.884Z,7.29
2019-02-09T18:51:45.276Z,7.30
2019-02-09T18:54:15.980Z,7.31
2019-02-09T18:56:47.057Z,7.35
2019-02-09T18:59:18.134Z,7.25
2019-02-09T19:01:49.419Z,7.32
2019-02-09T19:04:20.420Z,7.49
2019-02-09T19:06:51.894Z,7.39
2019-02-09T19:09:22.722Z,7.33
2019-02-09T19:11:53.803Z,7.36
2019-02-09T19:14:24.914Z,7.41
2019-02-09T19:16:55.696Z,7.43
2019-02-09T19:19:26.452Z,7.37
2019-02-09T19:21:57.225Z,7.37
2019-02-09T19:24:28.055Z,7.39
2019-02-09T19:26:59.044Z,7.34
2019-02-09T19:29:30.042Z,7.45
2019-02-09T19:32:01.079Z,7.46
2019-02-09T19:34:31.939Z,7.44
2019-02-09T19:37:02.705Z,7.46
2019-02-09T19:39:33.739Z,7.50
2019-02-09T19:42:05.219Z,7.55
2019-02-09T19:44:36.279Z,7.63
2019-02-09T19:47:07.141Z,7.61
2019-02-09T19:49:37.951Z,7.62
2019-02-09T19:52:09.627Z,7.59
2019-02-09T19:54:40.717Z,7.56
2019-02-09T19:57:11.707Z,7.57
2019-02-09T19:59:42.480Z,7.54
2019-02-09T20:02:13.334Z,7.53
2019-02-09T20:04:44.385Z,7.57
2019-02-09T20:07:15.939Z,7.62
2019-02-09T20:09:46.700Z,7.66
2019-02-09T20:12:18.797Z,7.76
2019-02-09T20:14:49.645Z,7.74
2019-02-09T20:17:21.375Z,7.75
2019-02-09T20:19:52.354Z,7.70
2019-02-09T20:22:23.223Z,7.72
2019-02-09T20:24:54.139Z,7.75
2019-02-09T20:27:25.130Z,7.68
2019-02-09T20:29:56.152Z,7.61
2019-02-09T20:32:27.197Z,7.75
2019-02-09T20:34:58.024Z,7.83
2019-02-09T20:37:28.858Z,7.83
2019-02-09T20:39:59.607Z,7.64
2019-02-09T20:42:30.988Z,7.84
2019-02-09T20:45:01.755Z,7.77
2019-02-09T20:47:32.982Z,7.78
2019-02-09T20:50:05.073Z,7.76
2019-02-09T20:52:36.442Z,7.71
2019-02-09T20:55:08.149Z,7.65
2019-02-09T20:57:39.134Z,7.68
2019-02-09T21:00:18.158Z,7.64
2019-02-09T21:02:45.765Z,7.64
2019-02-09T21:05:16.778Z,7.62
2019-02-09T21:07:47.918Z,7.65
2019-02-09T21:10:26.796Z,7.59
2019-02-09T21:12:57.868Z,7.59
2019-02-09T21:15:29.162Z,7.62
2019-02-09T21:18:01.945Z,7.64
2019-02-09T21:20:33.066Z,7.62
2019-02-09T21:23:04.306Z,7.63
2019-02-09T21:25:36.783Z,7.63
2019-02-09T21:28:08.219Z,7.66
2019-02-09T21:30:39.635Z,7.69
2019-02-09T21:33:11.694Z,7.69
2019-02-09T21:35:44.146Z,7.75
2019-02-09T21:38:15.379Z,7.76
2019-02-09T21:40:47.103Z,7.74
2019-02-09T21:43:17.946Z,7.82
2019-02-09T21:45:48.773Z,7.88
2019-02-09T21:48:19.761Z,7.89
2019-02-09T21:50:50.512Z,7.81
2019-02-09T21:53:21.418Z,7.83
2019-02-09T21:55:52.159Z,7.81
2019-02-09T21:58:23.149Z,7.79
2019-02-09T22:00:53.970Z,7.73
2019-02-09T22:03:26.586Z,7.79
2019-02-09T22:05:57.655Z,7.81
2019-02-09T22:08:28.736Z,7.84
2019-02-09T22:10:59.718Z,7.83
2019-02-09T22:13:30.786Z,7.82
2019-02-09T22:16:01.853Z,7.88
2019-02-09T22:18:32.762Z,7.90
2019-02-09T22:21:04.745Z,7.82
2019-02-09T22:23:35.802Z,7.82
2019-02-09T22:26:13.011Z,7.83
2019-02-09T22:28:39.126Z,7.78
2019-02-09T22:31:10.006Z,7.73
2019-02-09T22:33:41.084Z,7.79
2019-02-09T22:36:12.144Z,7.70
2019-02-09T22:38:43.533Z,7.72
2019-02-09T22:41:14.287Z,7.75
2019-02-09T22:43:45.298Z,7.78
2019-02-09T22:46:16.067Z,7.81
2019-02-09T22:48:46.831Z,7.91
2019-02-09T22:51:17.930Z,7.94
2019-02-09T22:53:49.233Z,8.08
2019-02-09T22:56:20.242Z,8.09
2019-02-09T22:58:51.083Z,7.98
2019-02-09T23:01:41.024Z,7.98
2019-02-09T23:04:37.940Z,8.09
2019-02-09T23:07:20.522Z,8.09
2019-02-09T23:09:51.288Z,8.13
2019-02-09T23:12:22.357Z,8.19
2019-02-09T23:14:53.124Z,8.29
2019-02-09T23:17:24.127Z,8.29
2019-02-09T23:19:54.931Z,8.30
2019-02-09T23:22:26.014Z,8.26
2019-02-09T23:24:56.789Z,8.31
2019-02-09T23:27:27.607Z,8.20
2019-02-09T23:29:58.601Z,8.33
2019-02-09T23:32:29.834Z,8.26
2019-02-09T23:35:00.858Z,8.33
2019-02-09T23:37:32.117Z,8.23
2019-02-09T23:40:02.890Z,8.17
2019-02-09T23:42:33.646Z,8.16
2019-02-09T23:45:04.573Z,8.01
2019-02-09T23:47:35.569Z,8.08
2019-02-09T23:50:06.770Z,8.04
2019-02-09T23:52:37.545Z,8.07
2019-02-09T23:55:08.433Z,8.17
2019-02-09T23:57:39.432Z,8.14
